VOI048 MMGL-MMUN
Flight info
| Callsign | VOI048 |
|---|---|
| Flight time | 2h 24m |
| Altitude | 35000 |
| Route | FEISE1B FEISE J25 SLP UT147 TMN DCT RAULS UT23 LIDAM DCT PERGO DCT XUDUN XUDUN1A |
| Aircraft | A321/M-SDE3FGHIRWY/LB1 |
Departure
| Time | 2026-05-08 02:25 |
|---|---|
| Airport | Guadalajara International Airport (MMGL) |
Arrival
| Time | 2026-05-08 04:50 |
|---|---|
| Airport | Cancún International Airport (MMUN) |
| Time | Latitude | Longitude | Altitude | Speed | Heading |
|---|---|---|---|---|---|
| 2026-05-08 01:38 | 20.52342 | -103.29823 | 5029 ft | 0 kts | 19° |
| 2026-05-08 02:09 | 20.52328 | -103.29828 | 5025 ft | 4 kts | 25° |
| 2026-05-08 02:09 | 20.52306 | -103.29843 | 5025 ft | 4 kts | 46° |
| 2026-05-08 02:09 | 20.52293 | -103.29865 | 5029 ft | 4 kts | 96° |
| 2026-05-08 02:09 | 20.52295 | -103.29874 | 5029 ft | 0 kts | 116° |
| 2026-05-08 02:13 | 20.52292 | -103.29869 | 5029 ft | 2 kts | 116° |
| 2026-05-08 02:13 | 20.52283 | -103.29850 | 5029 ft | 4 kts | 116° |
| 2026-05-08 02:13 | 20.52267 | -103.29817 | 5027 ft | 6 kts | 116° |
| 2026-05-08 02:13 | 20.52241 | -103.29772 | 5029 ft | 8 kts | 136° |
| 2026-05-08 02:14 | 20.52185 | -103.29767 | 5029 ft | 9 kts | 198° |
| 2026-05-08 02:14 | 20.52117 | -103.29792 | 5029 ft | 11 kts | 198° |
| 2026-05-08 02:14 | 20.52053 | -103.29752 | 5028 ft | 12 kts | 120° |
| 2026-05-08 02:14 | 20.52011 | -103.29663 | 5029 ft | 14 kts | 113° |
| 2026-05-08 02:15 | 20.51981 | -103.29588 | 5030 ft | 0 kts | 113° |
| 2026-05-08 02:15 | 20.51981 | -103.29587 | 5030 ft | 1 kts | 113° |
| 2026-05-08 02:15 | 20.51975 | -103.29575 | 5030 ft | 4 kts | 119° |
| 2026-05-08 02:15 | 20.51954 | -103.29552 | 5030 ft | 5 kts | 141° |
| 2026-05-08 02:16 | 20.51921 | -103.29542 | 5030 ft | 4 kts | 182° |
| 2026-05-08 02:16 | 20.51918 | -103.29542 | 5030 ft | 0 kts | 185° |
| 2026-05-08 02:22 | 20.51912 | -103.29543 | 5030 ft | 2 kts | 189° |
| 2026-05-08 02:22 | 20.51893 | -103.29549 | 5030 ft | 4 kts | 198° |
| 2026-05-08 02:22 | 20.51863 | -103.29562 | 5030 ft | 6 kts | 201° |
| 2026-05-08 02:22 | 20.51826 | -103.29587 | 5030 ft | 7 kts | 236° |
| 2026-05-08 02:23 | 20.51826 | -103.29619 | 5030 ft | 0 kts | 289° |
| 2026-05-08 02:24 | 20.51898 | -103.29800 | 5029 ft | 62 kts | 294° |
| 2026-05-08 02:25 | 20.52165 | -103.30433 | 5025 ft | 123 kts | 294° |
| 2026-05-08 02:25 | 20.52587 | -103.31438 | 5040 ft | 171 kts | 294° |
| 2026-05-08 02:25 | 20.53113 | -103.32644 | 5484 ft | 188 kts | 296° |
| 2026-05-08 02:25 | 20.53675 | -103.34021 | 5872 ft | 211 kts | 292° |
| 2026-05-08 02:26 | 20.54278 | -103.35552 | 6122 ft | 238 kts | 291° |
| 2026-05-08 02:26 | 20.54923 | -103.37206 | 6328 ft | 237 kts | 292° |
| 2026-05-08 02:26 | 20.55557 | -103.38809 | 6613 ft | 232 kts | 291° |
| 2026-05-08 02:26 | 20.56187 | -103.40387 | 6877 ft | 232 kts | 293° |
| 2026-05-08 02:27 | 20.56829 | -103.41984 | 7136 ft | 235 kts | 293° |
| 2026-05-08 02:27 | 20.57716 | -103.43494 | 7398 ft | 248 kts | 315° |
| 2026-05-08 02:27 | 20.59269 | -103.44451 | 7675 ft | 267 kts | 343° |
| 2026-05-08 02:27 | 20.61177 | -103.44402 | 7914 ft | 289 kts | 15° |
| 2026-05-08 02:28 | 20.62865 | -103.43226 | 8070 ft | 297 kts | 49° |
| 2026-05-08 02:28 | 20.64031 | -103.41380 | 8242 ft | 303 kts | 59° |
| 2026-05-08 02:28 | 20.65009 | -103.39383 | 8410 ft | 304 kts | 63° |
| 2026-05-08 02:28 | 20.65912 | -103.37343 | 8573 ft | 304 kts | 64° |
| 2026-05-08 02:29 | 20.66809 | -103.35296 | 8743 ft | 305 kts | 64° |
| 2026-05-08 02:29 | 20.67730 | -103.33253 | 8902 ft | 305 kts | 63° |
| 2026-05-08 02:29 | 20.68706 | -103.31160 | 9072 ft | 307 kts | 62° |
| 2026-05-08 02:29 | 20.69662 | -103.29161 | 9267 ft | 306 kts | 62° |
| 2026-05-08 02:30 | 20.70660 | -103.27112 | 9563 ft | 308 kts | 62° |
| 2026-05-08 02:30 | 20.71652 | -103.25089 | 9935 ft | 308 kts | 62° |
| 2026-05-08 02:30 | 20.72664 | -103.23028 | 10284 ft | 317 kts | 62° |
| 2026-05-08 02:30 | 20.73702 | -103.20917 | 10636 ft | 326 kts | 62° |
| 2026-05-08 02:31 | 20.74771 | -103.18739 | 10982 ft | 336 kts | 63° |
| 2026-05-08 02:31 | 20.75868 | -103.16494 | 11289 ft | 344 kts | 63° |
| 2026-05-08 02:31 | 20.76981 | -103.14217 | 11602 ft | 347 kts | 63° |
| 2026-05-08 02:31 | 20.78099 | -103.11927 | 11871 ft | 348 kts | 64° |
| 2026-05-08 02:32 | 20.79210 | -103.09644 | 12209 ft | 347 kts | 64° |
| 2026-05-08 02:32 | 20.80327 | -103.07349 | 12552 ft | 348 kts | 64° |
| 2026-05-08 02:32 | 20.81445 | -103.05056 | 12886 ft | 349 kts | 64° |
| 2026-05-08 02:32 | 20.82565 | -103.02753 | 13235 ft | 350 kts | 65° |
| 2026-05-08 02:33 | 20.83687 | -103.00445 | 13593 ft | 351 kts | 65° |
| 2026-05-08 02:33 | 20.84814 | -102.98127 | 13911 ft | 352 kts | 65° |
| 2026-05-08 02:33 | 20.85963 | -102.95768 | 14230 ft | 354 kts | 65° |
| 2026-05-08 02:33 | 20.86718 | -102.94224 | 14440 ft | 355 kts | 65° |
| 2026-05-08 02:34 | 20.87879 | -102.91841 | 14763 ft | 358 kts | 65° |
| 2026-05-08 02:34 | 20.89046 | -102.89440 | 15085 ft | 361 kts | 65° |
| 2026-05-08 02:34 | 20.90222 | -102.87018 | 15424 ft | 363 kts | 65° |
| 2026-05-08 02:34 | 20.91389 | -102.84607 | 15745 ft | 366 kts | 65° |
| 2026-05-08 02:35 | 20.92564 | -102.82174 | 16094 ft | 369 kts | 65° |
| 2026-05-08 02:35 | 20.93764 | -102.79694 | 16440 ft | 372 kts | 65° |
| 2026-05-08 02:35 | 20.94958 | -102.77228 | 16777 ft | 374 kts | 65° |
| 2026-05-08 02:35 | 20.96154 | -102.74765 | 17165 ft | 373 kts | 65° |
| 2026-05-08 02:36 | 20.97349 | -102.72300 | 17599 ft | 374 kts | 66° |
| 2026-05-08 02:36 | 20.98550 | -102.69821 | 18031 ft | 376 kts | 66° |
| 2026-05-08 02:36 | 20.99765 | -102.67331 | 18414 ft | 379 kts | 64° |
| 2026-05-08 02:36 | 21.01258 | -102.64977 | 18791 ft | 386 kts | 54° |
| 2026-05-08 02:37 | 21.02932 | -102.62712 | 19186 ft | 389 kts | 54° |
| 2026-05-08 02:37 | 21.04615 | -102.60425 | 19571 ft | 393 kts | 54° |
| 2026-05-08 02:37 | 21.06309 | -102.58117 | 19965 ft | 396 kts | 54° |
| 2026-05-08 02:37 | 21.08016 | -102.55790 | 20354 ft | 399 kts | 54° |
| 2026-05-08 02:38 | 21.09731 | -102.53448 | 20759 ft | 401 kts | 54° |
| 2026-05-08 02:38 | 21.11455 | -102.51091 | 21168 ft | 403 kts | 54° |
| 2026-05-08 02:38 | 21.13194 | -102.48720 | 21611 ft | 404 kts | 54° |
| 2026-05-08 02:38 | 21.14930 | -102.46354 | 22084 ft | 404 kts | 54° |
| 2026-05-08 02:39 | 21.16664 | -102.43993 | 22612 ft | 403 kts | 54° |
| 2026-05-08 02:39 | 21.18416 | -102.41605 | 23131 ft | 402 kts | 54° |
| 2026-05-08 02:39 | 21.20139 | -102.39248 | 23577 ft | 402 kts | 54° |
| 2026-05-08 02:39 | 21.21864 | -102.36886 | 23901 ft | 404 kts | 54° |
| 2026-05-08 02:40 | 21.23602 | -102.34510 | 24233 ft | 406 kts | 54° |
| 2026-05-08 02:40 | 21.25347 | -102.32124 | 24561 ft | 408 kts | 54° |
| 2026-05-08 02:40 | 21.27102 | -102.29725 | 24898 ft | 410 kts | 54° |
| 2026-05-08 02:40 | 21.28858 | -102.27315 | 25248 ft | 411 kts | 54° |
| 2026-05-08 02:41 | 21.30618 | -102.24894 | 25589 ft | 412 kts | 54° |
| 2026-05-08 02:41 | 21.32389 | -102.22462 | 25934 ft | 414 kts | 54° |
| 2026-05-08 02:41 | 21.34161 | -102.20029 | 26283 ft | 415 kts | 54° |
| 2026-05-08 02:41 | 21.35934 | -102.17592 | 26648 ft | 415 kts | 54° |
| 2026-05-08 02:42 | 21.37726 | -102.15131 | 26862 ft | 421 kts | 54° |
| 2026-05-08 02:42 | 21.39544 | -102.12637 | 27012 ft | 428 kts | 54° |
| 2026-05-08 02:42 | 21.41397 | -102.10096 | 27160 ft | 436 kts | 54° |
| 2026-05-08 02:42 | 21.43280 | -102.07512 | 27289 ft | 443 kts | 54° |
| 2026-05-08 02:43 | 21.45191 | -102.04882 | 27419 ft | 450 kts | 54° |
| 2026-05-08 02:43 | 21.47131 | -102.02212 | 27554 ft | 457 kts | 53° |
| 2026-05-08 02:43 | 21.49100 | -101.99503 | 27679 ft | 463 kts | 53° |
| 2026-05-08 02:43 | 21.51091 | -101.96762 | 27837 ft | 467 kts | 53° |
| 2026-05-08 02:44 | 21.53098 | -101.93997 | 27996 ft | 469 kts | 53° |
| 2026-05-08 02:44 | 21.55107 | -101.91230 | 28200 ft | 471 kts | 53° |
| 2026-05-08 02:44 | 21.57125 | -101.88447 | 28424 ft | 473 kts | 53° |
| 2026-05-08 02:44 | 21.59148 | -101.85652 | 28653 ft | 475 kts | 53° |
| 2026-05-08 02:45 | 21.61178 | -101.82844 | 28910 ft | 477 kts | 53° |
| 2026-05-08 02:45 | 21.63219 | -101.80019 | 29193 ft | 478 kts | 53° |
| 2026-05-08 02:45 | 21.65261 | -101.77193 | 29492 ft | 480 kts | 53° |
| 2026-05-08 02:45 | 21.67317 | -101.74354 | 29818 ft | 481 kts | 53° |
| 2026-05-08 02:46 | 21.69376 | -101.71511 | 30099 ft | 483 kts | 53° |
| 2026-05-08 02:46 | 21.71440 | -101.68656 | 30339 ft | 484 kts | 53° |
| 2026-05-08 02:46 | 21.73501 | -101.65801 | 30591 ft | 484 kts | 53° |
| 2026-05-08 02:46 | 21.75566 | -101.62935 | 30846 ft | 485 kts | 53° |
| 2026-05-08 02:47 | 21.77636 | -101.60061 | 31137 ft | 486 kts | 53° |
| 2026-05-08 02:47 | 21.79709 | -101.57184 | 31392 ft | 486 kts | 53° |
| 2026-05-08 02:47 | 21.81781 | -101.54313 | 31651 ft | 487 kts | 53° |
| 2026-05-08 02:47 | 21.83859 | -101.51430 | 31915 ft | 487 kts | 53° |
| 2026-05-08 02:48 | 21.85927 | -101.48557 | 32184 ft | 487 kts | 53° |
| 2026-05-08 02:48 | 21.88011 | -101.45657 | 32472 ft | 488 kts | 53° |
| 2026-05-08 02:48 | 21.90083 | -101.42769 | 32740 ft | 487 kts | 53° |
| 2026-05-08 02:48 | 21.92180 | -101.39845 | 33018 ft | 487 kts | 53° |
| 2026-05-08 02:49 | 21.94254 | -101.36953 | 33290 ft | 487 kts | 52° |
| 2026-05-08 02:49 | 21.96322 | -101.34070 | 33569 ft | 487 kts | 52° |
| 2026-05-08 02:49 | 21.98394 | -101.31181 | 33854 ft | 486 kts | 52° |
| 2026-05-08 02:49 | 22.00459 | -101.28300 | 34122 ft | 486 kts | 52° |
| 2026-05-08 02:50 | 22.02521 | -101.25419 | 34374 ft | 485 kts | 52° |
| 2026-05-08 02:50 | 22.04579 | -101.22541 | 34630 ft | 485 kts | 52° |
| 2026-05-08 02:50 | 22.06636 | -101.19663 | 34877 ft | 485 kts | 52° |
| 2026-05-08 02:50 | 22.08700 | -101.16779 | 34963 ft | 481 kts | 52° |
| 2026-05-08 02:51 | 22.12730 | -101.11154 | 35010 ft | 471 kts | 52° |
| 2026-05-08 02:51 | 22.16710 | -101.05580 | 35050 ft | 470 kts | 52° |
| 2026-05-08 02:52 | 22.20692 | -100.99998 | 35084 ft | 469 kts | 52° |
| 2026-05-08 02:52 | 22.22528 | -100.97093 | 35082 ft | 468 kts | 63° |
| 2026-05-08 02:52 | 22.23875 | -100.93909 | 35084 ft | 466 kts | 73° |
| 2026-05-08 02:53 | 22.24687 | -100.90547 | 35084 ft | 462 kts | 84° |
| 2026-05-08 02:53 | 22.24959 | -100.87107 | 35083 ft | 457 kts | 95° |
| 2026-05-08 02:53 | 22.24404 | -100.80313 | 35063 ft | 455 kts | 100° |
| 2026-05-08 02:54 | 22.23749 | -100.73524 | 35026 ft | 455 kts | 100° |
| 2026-05-08 02:54 | 22.23088 | -100.66730 | 34988 ft | 455 kts | 100° |
| 2026-05-08 02:55 | 22.22092 | -100.56543 | 34921 ft | 455 kts | 100° |
| 2026-05-08 02:56 | 22.21424 | -100.49742 | 34916 ft | 456 kts | 100° |
| 2026-05-08 02:56 | 22.20744 | -100.42900 | 34924 ft | 456 kts | 100° |
| 2026-05-08 02:57 | 22.20064 | -100.36101 | 34919 ft | 456 kts | 100° |
| 2026-05-08 02:57 | 22.19390 | -100.29355 | 34918 ft | 455 kts | 100° |
| 2026-05-08 02:58 | 22.18703 | -100.22515 | 34905 ft | 455 kts | 100° |
| 2026-05-08 02:58 | 22.18018 | -100.15726 | 34902 ft | 455 kts | 100° |
| 2026-05-08 02:59 | 22.17330 | -100.08927 | 34890 ft | 456 kts | 100° |
| 2026-05-08 02:59 | 22.16635 | -100.02086 | 34896 ft | 456 kts | 100° |
| 2026-05-08 03:00 | 22.15938 | -99.95297 | 34901 ft | 456 kts | 100° |
| 2026-05-08 03:00 | 22.15245 | -99.88495 | 34898 ft | 456 kts | 100° |
| 2026-05-08 03:01 | 22.14547 | -99.81706 | 34899 ft | 455 kts | 100° |
| 2026-05-08 03:01 | 22.13851 | -99.74914 | 34905 ft | 455 kts | 99° |
| 2026-05-08 03:02 | 22.13150 | -99.68127 | 34907 ft | 455 kts | 100° |
| 2026-05-08 03:02 | 22.12567 | -99.62494 | 34909 ft | 455 kts | 100° |
| 2026-05-08 03:03 | 22.11851 | -99.55659 | 34913 ft | 455 kts | 100° |
| 2026-05-08 03:03 | 22.11138 | -99.48887 | 34909 ft | 455 kts | 100° |
| 2026-05-08 03:04 | 22.10427 | -99.42110 | 34904 ft | 455 kts | 100° |
| 2026-05-08 03:04 | 22.09711 | -99.35329 | 34890 ft | 455 kts | 100° |
| 2026-05-08 03:05 | 22.08990 | -99.28544 | 34893 ft | 455 kts | 100° |
| 2026-05-08 03:05 | 22.08270 | -99.21773 | 34879 ft | 455 kts | 100° |
| 2026-05-08 03:06 | 22.07547 | -99.14997 | 34882 ft | 455 kts | 100° |
| 2026-05-08 03:06 | 22.06820 | -99.08221 | 34865 ft | 455 kts | 100° |
| 2026-05-08 03:07 | 22.06088 | -99.01445 | 34855 ft | 456 kts | 100° |
| 2026-05-08 03:07 | 22.05346 | -98.94616 | 34850 ft | 456 kts | 100° |
| 2026-05-08 03:08 | 22.04605 | -98.87817 | 34847 ft | 456 kts | 100° |
| 2026-05-08 03:08 | 22.03928 | -98.80967 | 34845 ft | 458 kts | 94° |
| 2026-05-08 03:09 | 22.04262 | -98.74086 | 34838 ft | 460 kts | 89° |
| 2026-05-08 03:09 | 22.04650 | -98.67196 | 34834 ft | 461 kts | 89° |
| 2026-05-08 03:10 | 22.05013 | -98.60290 | 34828 ft | 462 kts | 89° |
| 2026-05-08 03:10 | 22.05388 | -98.53360 | 34832 ft | 462 kts | 89° |
| 2026-05-08 03:11 | 22.05772 | -98.46464 | 34834 ft | 463 kts | 89° |
| 2026-05-08 03:11 | 22.06162 | -98.39549 | 34838 ft | 463 kts | 89° |
| 2026-05-08 03:12 | 22.06541 | -98.32617 | 34843 ft | 463 kts | 89° |
| 2026-05-08 03:12 | 22.06914 | -98.25646 | 34844 ft | 463 kts | 89° |
| 2026-05-08 03:13 | 22.07286 | -98.18715 | 34845 ft | 463 kts | 89° |
| 2026-05-08 03:13 | 22.07653 | -98.11783 | 34847 ft | 463 kts | 89° |
| 2026-05-08 03:14 | 22.08019 | -98.04854 | 34846 ft | 463 kts | 89° |
| 2026-05-08 03:14 | 22.08382 | -97.97920 | 34849 ft | 463 kts | 89° |
| 2026-05-08 03:15 | 22.08749 | -97.90986 | 34849 ft | 463 kts | 89° |
| 2026-05-08 03:15 | 22.09107 | -97.84065 | 34851 ft | 463 kts | 89° |
| 2026-05-08 03:16 | 22.09459 | -97.77132 | 34851 ft | 463 kts | 89° |
| 2026-05-08 03:16 | 22.09808 | -97.70203 | 34853 ft | 463 kts | 89° |
| 2026-05-08 03:17 | 22.10158 | -97.63271 | 34854 ft | 463 kts | 89° |
| 2026-05-08 03:17 | 22.10507 | -97.56345 | 34857 ft | 463 kts | 89° |
| 2026-05-08 03:18 | 22.10846 | -97.49413 | 34859 ft | 463 kts | 89° |
| 2026-05-08 03:18 | 22.11181 | -97.42479 | 34859 ft | 463 kts | 89° |
| 2026-05-08 03:19 | 22.11519 | -97.35550 | 34855 ft | 463 kts | 89° |
| 2026-05-08 03:19 | 22.11856 | -97.28574 | 34855 ft | 463 kts | 89° |
| 2026-05-08 03:20 | 22.12187 | -97.21644 | 34859 ft | 463 kts | 89° |
| 2026-05-08 03:20 | 22.12513 | -97.14718 | 34858 ft | 463 kts | 89° |
| 2026-05-08 03:21 | 22.12840 | -97.07792 | 34860 ft | 463 kts | 89° |
| 2026-05-08 03:21 | 22.13170 | -97.00770 | 34860 ft | 462 kts | 89° |
| 2026-05-08 03:22 | 22.13484 | -96.93842 | 34864 ft | 462 kts | 89° |
| 2026-05-08 03:22 | 22.13796 | -96.86918 | 34862 ft | 462 kts | 89° |
| 2026-05-08 03:23 | 22.14116 | -96.79992 | 34860 ft | 462 kts | 89° |
| 2026-05-08 03:23 | 22.14436 | -96.73070 | 34862 ft | 462 kts | 89° |
| 2026-05-08 03:24 | 22.14740 | -96.66159 | 34865 ft | 462 kts | 89° |
| 2026-05-08 03:24 | 22.15036 | -96.59242 | 34864 ft | 461 kts | 89° |
| 2026-05-08 03:25 | 22.15119 | -96.52339 | 34864 ft | 458 kts | 99° |
| 2026-05-08 03:25 | 22.14375 | -96.45514 | 34865 ft | 458 kts | 99° |
| 2026-05-08 03:26 | 22.13637 | -96.38693 | 34862 ft | 458 kts | 99° |
| 2026-05-08 03:26 | 22.12907 | -96.31869 | 34861 ft | 458 kts | 99° |
| 2026-05-08 03:27 | 22.12158 | -96.24995 | 34863 ft | 458 kts | 99° |
| 2026-05-08 03:27 | 22.11407 | -96.18174 | 34866 ft | 458 kts | 99° |
| 2026-05-08 03:28 | 22.10654 | -96.11343 | 34864 ft | 458 kts | 99° |
| 2026-05-08 03:28 | 22.09902 | -96.04521 | 34862 ft | 458 kts | 99° |
| 2026-05-08 03:29 | 22.09140 | -95.97703 | 34869 ft | 458 kts | 99° |
| 2026-05-08 03:29 | 22.08373 | -95.90896 | 34866 ft | 457 kts | 99° |
| 2026-05-08 03:30 | 22.07340 | -95.81749 | 34869 ft | 457 kts | 99° |
| 2026-05-08 03:31 | 22.05816 | -95.68142 | 34867 ft | 457 kts | 99° |
| 2026-05-08 03:32 | 22.04652 | -95.57904 | 34868 ft | 456 kts | 99° |
| 2026-05-08 03:32 | 22.03877 | -95.51170 | 34868 ft | 456 kts | 99° |
| 2026-05-08 03:33 | 22.03100 | -95.44354 | 34870 ft | 455 kts | 99° |
| 2026-05-08 03:33 | 22.02326 | -95.37593 | 34873 ft | 454 kts | 99° |
| 2026-05-08 03:34 | 22.01544 | -95.30849 | 34872 ft | 453 kts | 99° |
| 2026-05-08 03:34 | 22.00758 | -95.24113 | 34873 ft | 452 kts | 99° |
| 2026-05-08 03:35 | 21.99974 | -95.17386 | 34872 ft | 452 kts | 99° |
| 2026-05-08 03:35 | 21.99185 | -95.10629 | 34870 ft | 451 kts | 99° |
| 2026-05-08 03:36 | 21.98399 | -95.03929 | 34868 ft | 451 kts | 99° |
| 2026-05-08 03:36 | 21.97618 | -94.97229 | 34867 ft | 451 kts | 99° |
| 2026-05-08 03:37 | 21.96831 | -94.90489 | 34860 ft | 450 kts | 99° |
| 2026-05-08 03:37 | 21.96040 | -94.83799 | 34861 ft | 450 kts | 99° |
| 2026-05-08 03:38 | 21.95241 | -94.77070 | 34861 ft | 450 kts | 99° |
| 2026-05-08 03:38 | 21.94451 | -94.70383 | 34861 ft | 450 kts | 99° |
| 2026-05-08 03:39 | 21.93649 | -94.63615 | 34863 ft | 450 kts | 99° |
| 2026-05-08 03:39 | 21.92849 | -94.56941 | 34857 ft | 449 kts | 99° |
| 2026-05-08 03:40 | 21.92050 | -94.50273 | 34868 ft | 449 kts | 99° |
| 2026-05-08 03:40 | 21.91238 | -94.43569 | 34870 ft | 448 kts | 99° |
| 2026-05-08 03:41 | 21.90431 | -94.36914 | 34872 ft | 448 kts | 99° |
| 2026-05-08 03:41 | 21.89629 | -94.30225 | 34871 ft | 447 kts | 99° |
| 2026-05-08 03:42 | 21.88823 | -94.23588 | 34870 ft | 447 kts | 99° |
| 2026-05-08 03:42 | 21.88000 | -94.16956 | 34869 ft | 447 kts | 99° |
| 2026-05-08 03:43 | 21.87185 | -94.10331 | 34868 ft | 447 kts | 99° |
| 2026-05-08 03:43 | 21.86381 | -94.03696 | 34868 ft | 447 kts | 99° |
| 2026-05-08 03:44 | 21.85558 | -93.97026 | 34868 ft | 446 kts | 99° |
| 2026-05-08 03:44 | 21.84738 | -93.90400 | 34867 ft | 446 kts | 99° |
| 2026-05-08 03:45 | 21.83916 | -93.83784 | 34871 ft | 446 kts | 99° |
| 2026-05-08 03:45 | 21.83090 | -93.77159 | 34866 ft | 447 kts | 99° |
| 2026-05-08 03:46 | 21.82257 | -93.70490 | 34872 ft | 447 kts | 99° |
| 2026-05-08 03:46 | 21.81428 | -93.63862 | 34875 ft | 447 kts | 99° |
| 2026-05-08 03:47 | 21.80595 | -93.57240 | 34875 ft | 447 kts | 99° |
| 2026-05-08 03:47 | 21.79763 | -93.50609 | 34876 ft | 447 kts | 99° |
| 2026-05-08 03:48 | 21.78921 | -93.43943 | 34878 ft | 447 kts | 99° |
| 2026-05-08 03:48 | 21.78073 | -93.37334 | 34878 ft | 446 kts | 99° |
| 2026-05-08 03:49 | 21.77225 | -93.30722 | 34877 ft | 446 kts | 99° |
| 2026-05-08 03:49 | 21.76382 | -93.24111 | 34873 ft | 446 kts | 99° |
| 2026-05-08 03:50 | 21.75672 | -93.18537 | 34868 ft | 445 kts | 99° |
| 2026-05-08 03:50 | 21.74830 | -93.11951 | 34872 ft | 444 kts | 99° |
| 2026-05-08 03:51 | 21.73980 | -93.05370 | 34876 ft | 444 kts | 99° |
| 2026-05-08 03:51 | 21.73123 | -92.98802 | 34875 ft | 444 kts | 99° |
| 2026-05-08 03:52 | 21.72272 | -92.92227 | 34874 ft | 444 kts | 99° |
| 2026-05-08 03:52 | 21.71421 | -92.85655 | 34874 ft | 443 kts | 99° |
| 2026-05-08 03:53 | 21.70561 | -92.79092 | 34873 ft | 443 kts | 99° |
| 2026-05-08 03:53 | 21.69699 | -92.72489 | 34873 ft | 443 kts | 99° |
| 2026-05-08 03:54 | 21.68834 | -92.65921 | 34871 ft | 443 kts | 99° |
| 2026-05-08 03:54 | 21.67962 | -92.59364 | 34871 ft | 443 kts | 99° |
| 2026-05-08 03:55 | 21.67085 | -92.52806 | 34871 ft | 443 kts | 99° |
| 2026-05-08 03:55 | 21.66212 | -92.46199 | 34870 ft | 443 kts | 99° |
| 2026-05-08 03:56 | 21.65341 | -92.39633 | 34875 ft | 444 kts | 99° |
| 2026-05-08 03:56 | 21.64463 | -92.33029 | 34876 ft | 444 kts | 99° |
| 2026-05-08 03:57 | 21.63585 | -92.26467 | 34881 ft | 444 kts | 99° |
| 2026-05-08 03:57 | 21.62702 | -92.19899 | 34877 ft | 444 kts | 99° |
| 2026-05-08 03:58 | 21.61818 | -92.13325 | 34878 ft | 444 kts | 99° |
| 2026-05-08 03:58 | 21.60926 | -92.06755 | 34879 ft | 445 kts | 99° |
| 2026-05-08 03:59 | 21.60034 | -92.00182 | 34880 ft | 445 kts | 99° |
| 2026-05-08 03:59 | 21.59142 | -91.93606 | 34881 ft | 445 kts | 99° |
| 2026-05-08 04:00 | 21.58242 | -91.86990 | 34878 ft | 445 kts | 99° |
| 2026-05-08 04:00 | 21.57339 | -91.80421 | 34882 ft | 445 kts | 99° |
| 2026-05-08 04:01 | 21.56438 | -91.73846 | 34882 ft | 445 kts | 99° |
| 2026-05-08 04:01 | 21.55533 | -91.67281 | 34882 ft | 444 kts | 99° |
| 2026-05-08 04:02 | 21.54621 | -91.60671 | 34881 ft | 444 kts | 99° |
| 2026-05-08 04:02 | 21.53718 | -91.54104 | 34880 ft | 444 kts | 99° |
| 2026-05-08 04:03 | 21.52802 | -91.47544 | 34876 ft | 444 kts | 99° |
| 2026-05-08 04:03 | 21.51427 | -91.37705 | 34875 ft | 444 kts | 99° |
| 2026-05-08 04:04 | 21.50507 | -91.31156 | 34874 ft | 444 kts | 99° |
| 2026-05-08 04:04 | 21.49584 | -91.24555 | 34874 ft | 444 kts | 99° |
| 2026-05-08 04:05 | 21.48670 | -91.18008 | 34873 ft | 444 kts | 99° |
| 2026-05-08 04:05 | 21.47747 | -91.11466 | 34870 ft | 443 kts | 99° |
| 2026-05-08 04:06 | 21.46811 | -91.04877 | 34870 ft | 443 kts | 99° |
| 2026-05-08 04:06 | 21.45882 | -90.98338 | 34869 ft | 443 kts | 99° |
| 2026-05-08 04:07 | 21.44950 | -90.91790 | 34870 ft | 443 kts | 99° |
| 2026-05-08 04:07 | 21.44007 | -90.85209 | 34875 ft | 443 kts | 99° |
| 2026-05-08 04:08 | 21.43076 | -90.78678 | 34869 ft | 443 kts | 99° |
| 2026-05-08 04:08 | 21.42135 | -90.72092 | 34870 ft | 443 kts | 99° |
| 2026-05-08 04:09 | 21.41191 | -90.65562 | 34870 ft | 443 kts | 99° |
| 2026-05-08 04:09 | 21.40243 | -90.59035 | 34868 ft | 442 kts | 99° |
| 2026-05-08 04:10 | 21.39300 | -90.52514 | 34871 ft | 442 kts | 99° |
| 2026-05-08 04:10 | 21.38354 | -90.45986 | 34872 ft | 442 kts | 99° |
| 2026-05-08 04:11 | 21.37400 | -90.39470 | 34870 ft | 442 kts | 99° |
| 2026-05-08 04:11 | 21.36599 | -90.34007 | 34873 ft | 442 kts | 99° |
| 2026-05-08 04:12 | 21.35649 | -90.27487 | 34879 ft | 442 kts | 99° |
| 2026-05-08 04:12 | 21.34700 | -90.20973 | 34879 ft | 442 kts | 99° |
| 2026-05-08 04:13 | 21.33745 | -90.14466 | 34882 ft | 442 kts | 99° |
| 2026-05-08 04:13 | 21.32783 | -90.07964 | 34882 ft | 442 kts | 99° |
| 2026-05-08 04:14 | 21.31811 | -90.01373 | 34690 ft | 453 kts | 99° |
| 2026-05-08 04:14 | 21.31316 | -89.98030 | 34459 ft | 458 kts | 100° |
| 2026-05-08 04:14 | 21.30812 | -89.94650 | 34230 ft | 459 kts | 100° |
| 2026-05-08 04:15 | 21.30308 | -89.91272 | 34008 ft | 458 kts | 100° |
| 2026-05-08 04:15 | 21.29806 | -89.87907 | 33761 ft | 456 kts | 100° |
| 2026-05-08 04:15 | 21.29304 | -89.84563 | 33503 ft | 455 kts | 100° |
| 2026-05-08 04:15 | 21.28804 | -89.81225 | 33241 ft | 453 kts | 100° |
| 2026-05-08 04:16 | 21.28304 | -89.77890 | 32994 ft | 451 kts | 100° |
| 2026-05-08 04:16 | 21.27809 | -89.74581 | 32748 ft | 449 kts | 100° |
| 2026-05-08 04:16 | 21.27450 | -89.71264 | 32491 ft | 448 kts | 92° |
| 2026-05-08 04:16 | 21.27592 | -89.67939 | 32258 ft | 447 kts | 85° |
| 2026-05-08 04:17 | 21.27860 | -89.64627 | 32011 ft | 446 kts | 86° |
| 2026-05-08 04:17 | 21.28123 | -89.61317 | 31769 ft | 444 kts | 86° |
| 2026-05-08 04:17 | 21.28378 | -89.58027 | 31532 ft | 442 kts | 86° |
| 2026-05-08 04:17 | 21.28629 | -89.54748 | 31292 ft | 441 kts | 86° |
| 2026-05-08 04:18 | 21.28880 | -89.51486 | 31062 ft | 439 kts | 86° |
| 2026-05-08 04:18 | 21.29132 | -89.48225 | 30830 ft | 438 kts | 86° |
| 2026-05-08 04:18 | 21.29380 | -89.44994 | 30598 ft | 436 kts | 86° |
| 2026-05-08 04:18 | 21.29626 | -89.41761 | 30371 ft | 435 kts | 86° |
| 2026-05-08 04:19 | 21.29875 | -89.38536 | 30148 ft | 433 kts | 86° |
| 2026-05-08 04:19 | 21.30127 | -89.35281 | 29894 ft | 431 kts | 86° |
| 2026-05-08 04:19 | 21.30371 | -89.32087 | 29637 ft | 430 kts | 86° |
| 2026-05-08 04:19 | 21.30616 | -89.28899 | 29369 ft | 428 kts | 86° |
| 2026-05-08 04:20 | 21.30857 | -89.25733 | 29109 ft | 426 kts | 86° |
| 2026-05-08 04:20 | 21.31094 | -89.22573 | 28848 ft | 423 kts | 86° |
| 2026-05-08 04:20 | 21.31330 | -89.19438 | 28590 ft | 421 kts | 86° |
| 2026-05-08 04:20 | 21.31566 | -89.16318 | 28335 ft | 419 kts | 86° |
| 2026-05-08 04:21 | 21.31799 | -89.13212 | 28084 ft | 417 kts | 87° |
| 2026-05-08 04:21 | 21.32032 | -89.10079 | 27831 ft | 415 kts | 87° |
| 2026-05-08 04:21 | 21.32259 | -89.07009 | 27590 ft | 413 kts | 87° |
| 2026-05-08 04:21 | 21.32488 | -89.03943 | 27343 ft | 411 kts | 87° |
| 2026-05-08 04:22 | 21.32716 | -89.00898 | 27097 ft | 409 kts | 87° |
| 2026-05-08 04:22 | 21.32943 | -88.97865 | 26859 ft | 407 kts | 87° |
| 2026-05-08 04:22 | 21.33167 | -88.94840 | 26615 ft | 406 kts | 87° |
| 2026-05-08 04:22 | 21.33390 | -88.91795 | 26375 ft | 403 kts | 87° |
| 2026-05-08 04:23 | 21.33605 | -88.88841 | 26144 ft | 402 kts | 87° |
| 2026-05-08 04:23 | 21.33826 | -88.85823 | 25907 ft | 400 kts | 87° |
| 2026-05-08 04:23 | 21.34043 | -88.82857 | 25672 ft | 398 kts | 87° |
| 2026-05-08 04:23 | 21.34260 | -88.79903 | 25444 ft | 395 kts | 87° |
| 2026-05-08 04:24 | 21.34476 | -88.76988 | 25169 ft | 390 kts | 87° |
| 2026-05-08 04:24 | 21.34686 | -88.74100 | 24768 ft | 388 kts | 87° |
| 2026-05-08 04:24 | 21.34893 | -88.71215 | 24356 ft | 387 kts | 88° |
| 2026-05-08 04:24 | 21.35098 | -88.68349 | 23947 ft | 385 kts | 88° |
| 2026-05-08 04:25 | 21.35304 | -88.65483 | 23521 ft | 384 kts | 88° |
| 2026-05-08 04:25 | 21.35511 | -88.62632 | 23059 ft | 382 kts | 88° |
| 2026-05-08 04:25 | 21.35715 | -88.59808 | 22646 ft | 379 kts | 88° |
| 2026-05-08 04:25 | 21.35915 | -88.57004 | 22232 ft | 375 kts | 88° |
| 2026-05-08 04:26 | 21.36112 | -88.54222 | 21819 ft | 372 kts | 88° |
| 2026-05-08 04:26 | 21.36312 | -88.51422 | 21401 ft | 370 kts | 88° |
| 2026-05-08 04:26 | 21.36507 | -88.48689 | 20993 ft | 367 kts | 88° |
| 2026-05-08 04:26 | 21.36700 | -88.45965 | 20590 ft | 364 kts | 88° |
| 2026-05-08 04:27 | 21.36859 | -88.43267 | 20183 ft | 360 kts | 92° |
| 2026-05-08 04:27 | 21.36642 | -88.40616 | 19777 ft | 355 kts | 103° |
| 2026-05-08 04:27 | 21.36104 | -88.38051 | 19433 ft | 350 kts | 105° |
| 2026-05-08 04:27 | 21.35565 | -88.35512 | 18987 ft | 349 kts | 104° |
| 2026-05-08 04:28 | 21.35034 | -88.32986 | 18673 ft | 344 kts | 104° |
| 2026-05-08 04:28 | 21.34506 | -88.30461 | 18285 ft | 342 kts | 104° |
| 2026-05-08 04:28 | 21.33988 | -88.27979 | 17861 ft | 339 kts | 104° |
| 2026-05-08 04:28 | 21.33473 | -88.25527 | 17469 ft | 335 kts | 104° |
| 2026-05-08 04:29 | 21.32958 | -88.23094 | 17053 ft | 333 kts | 104° |
| 2026-05-08 04:29 | 21.32447 | -88.20680 | 16626 ft | 331 kts | 104° |
| 2026-05-08 04:29 | 21.31939 | -88.18282 | 16237 ft | 328 kts | 104° |
| 2026-05-08 04:29 | 21.31436 | -88.15908 | 15848 ft | 326 kts | 104° |
| 2026-05-08 04:30 | 21.30936 | -88.13550 | 15466 ft | 323 kts | 103° |
| 2026-05-08 04:30 | 21.30439 | -88.11211 | 15083 ft | 321 kts | 103° |
| 2026-05-08 04:30 | 21.29943 | -88.08884 | 14703 ft | 319 kts | 103° |
| 2026-05-08 04:30 | 21.29452 | -88.06580 | 14338 ft | 316 kts | 103° |
| 2026-05-08 04:31 | 21.28954 | -88.04291 | 13968 ft | 314 kts | 104° |
| 2026-05-08 04:31 | 21.28455 | -88.02024 | 13593 ft | 312 kts | 104° |
| 2026-05-08 04:31 | 21.27958 | -87.99771 | 13190 ft | 309 kts | 104° |
| 2026-05-08 04:31 | 21.27465 | -87.97529 | 12792 ft | 308 kts | 104° |
| 2026-05-08 04:32 | 21.26969 | -87.95277 | 12408 ft | 305 kts | 104° |
| 2026-05-08 04:32 | 21.26484 | -87.93076 | 12031 ft | 303 kts | 104° |
| 2026-05-08 04:32 | 21.26006 | -87.90902 | 11632 ft | 302 kts | 103° |
| 2026-05-08 04:32 | 21.25525 | -87.88715 | 11212 ft | 301 kts | 103° |
| 2026-05-08 04:33 | 21.25041 | -87.86516 | 10866 ft | 299 kts | 103° |
| 2026-05-08 04:33 | 21.24563 | -87.84356 | 10544 ft | 296 kts | 104° |
| 2026-05-08 04:33 | 21.24091 | -87.82234 | 10291 ft | 290 kts | 104° |
| 2026-05-08 04:33 | 21.23624 | -87.80133 | 9927 ft | 289 kts | 103° |
| 2026-05-08 04:34 | 21.23154 | -87.78006 | 9538 ft | 288 kts | 103° |
| 2026-05-08 04:34 | 21.22695 | -87.75922 | 9122 ft | 288 kts | 103° |
| 2026-05-08 04:34 | 21.22238 | -87.73851 | 8801 ft | 284 kts | 104° |
| 2026-05-08 04:34 | 21.21964 | -87.71757 | 8430 ft | 284 kts | 91° |
| 2026-05-08 04:35 | 21.21988 | -87.69644 | 8069 ft | 283 kts | 90° |
| 2026-05-08 04:35 | 21.22019 | -87.67546 | 7715 ft | 281 kts | 90° |
| 2026-05-08 04:35 | 21.22048 | -87.65458 | 7365 ft | 280 kts | 91° |
| 2026-05-08 04:35 | 21.22077 | -87.63382 | 7030 ft | 278 kts | 91° |
| 2026-05-08 04:36 | 21.22103 | -87.61321 | 6699 ft | 276 kts | 91° |
| 2026-05-08 04:36 | 21.22129 | -87.59275 | 6371 ft | 274 kts | 91° |
| 2026-05-08 04:36 | 21.22155 | -87.57240 | 6028 ft | 272 kts | 91° |
| 2026-05-08 04:36 | 21.22179 | -87.55225 | 5703 ft | 269 kts | 92° |
| 2026-05-08 04:37 | 21.22201 | -87.53227 | 5382 ft | 267 kts | 92° |
| 2026-05-08 04:37 | 21.22223 | -87.51245 | 5065 ft | 265 kts | 92° |
| 2026-05-08 04:37 | 21.22244 | -87.49278 | 4748 ft | 263 kts | 92° |
| 2026-05-08 04:37 | 21.22267 | -87.47324 | 4426 ft | 261 kts | 92° |
| 2026-05-08 04:38 | 21.22291 | -87.45386 | 4115 ft | 259 kts | 92° |
| 2026-05-08 04:38 | 21.22313 | -87.43466 | 3806 ft | 257 kts | 92° |
| 2026-05-08 04:38 | 21.22335 | -87.41558 | 3499 ft | 255 kts | 92° |
| 2026-05-08 04:38 | 21.22355 | -87.39681 | 3289 ft | 248 kts | 93° |
| 2026-05-08 04:39 | 21.22376 | -87.37865 | 3170 ft | 239 kts | 92° |
| 2026-05-08 04:39 | 21.22397 | -87.36127 | 3067 ft | 228 kts | 93° |
| 2026-05-08 04:39 | 21.22410 | -87.34994 | 3025 ft | 221 kts | 93° |
| 2026-05-08 04:39 | 21.22376 | -87.33352 | 3029 ft | 220 kts | 96° |
| 2026-05-08 04:40 | 21.22276 | -87.31712 | 3025 ft | 221 kts | 97° |
| 2026-05-08 04:40 | 21.22158 | -87.30066 | 3029 ft | 221 kts | 97° |
| 2026-05-08 04:40 | 21.22039 | -87.28399 | 3030 ft | 221 kts | 97° |
| 2026-05-08 04:40 | 21.21927 | -87.26752 | 3030 ft | 222 kts | 97° |
| 2026-05-08 04:41 | 21.21809 | -87.25109 | 3029 ft | 221 kts | 101° |
| 2026-05-08 04:41 | 21.21394 | -87.23542 | 2967 ft | 219 kts | 112° |
| 2026-05-08 04:41 | 21.20868 | -87.22010 | 2877 ft | 219 kts | 112° |
| 2026-05-08 04:41 | 21.20346 | -87.20474 | 2789 ft | 219 kts | 112° |
| 2026-05-08 04:42 | 21.19826 | -87.18938 | 2694 ft | 219 kts | 112° |
| 2026-05-08 04:42 | 21.19307 | -87.17407 | 2610 ft | 218 kts | 112° |
| 2026-05-08 04:42 | 21.18790 | -87.15879 | 2522 ft | 218 kts | 112° |
| 2026-05-08 04:42 | 21.18275 | -87.14358 | 2432 ft | 217 kts | 112° |
| 2026-05-08 04:43 | 21.17769 | -87.12861 | 2343 ft | 208 kts | 112° |
| 2026-05-08 04:43 | 21.17289 | -87.11430 | 2260 ft | 195 kts | 112° |
| 2026-05-08 04:43 | 21.16844 | -87.10107 | 2179 ft | 185 kts | 112° |
| 2026-05-08 04:43 | 21.16420 | -87.08850 | 2124 ft | 171 kts | 112° |
| 2026-05-08 04:44 | 21.15988 | -87.07740 | 2056 ft | 152 kts | 118° |
| 2026-05-08 04:44 | 21.15499 | -87.06795 | 2014 ft | 134 kts | 122° |
| 2026-05-08 04:44 | 21.15025 | -87.05971 | 2013 ft | 127 kts | 124° |
| 2026-05-08 04:44 | 21.14556 | -87.05186 | 2030 ft | 124 kts | 125° |
| 2026-05-08 04:45 | 21.14087 | -87.04418 | 2028 ft | 123 kts | 125° |
| 2026-05-08 04:45 | 21.13610 | -87.03645 | 2027 ft | 123 kts | 125° |
| 2026-05-08 04:45 | 21.13137 | -87.02882 | 2027 ft | 123 kts | 126° |
| 2026-05-08 04:45 | 21.12664 | -87.02121 | 2027 ft | 123 kts | 126° |
| 2026-05-08 04:46 | 21.12189 | -87.01359 | 2027 ft | 123 kts | 126° |
| 2026-05-08 04:46 | 21.11716 | -87.00599 | 2027 ft | 123 kts | 126° |
| 2026-05-08 04:46 | 21.11242 | -86.99840 | 2034 ft | 123 kts | 125° |
| 2026-05-08 04:46 | 21.10768 | -86.99081 | 2019 ft | 123 kts | 125° |
| 2026-05-08 04:47 | 21.10296 | -86.98325 | 1932 ft | 122 kts | 125° |
| 2026-05-08 04:47 | 21.09917 | -86.97718 | 1827 ft | 122 kts | 125° |
| 2026-05-08 04:47 | 21.09445 | -86.96963 | 1690 ft | 122 kts | 124° |
| 2026-05-08 04:47 | 21.08977 | -86.96213 | 1578 ft | 121 kts | 124° |
| 2026-05-08 04:48 | 21.08511 | -86.95466 | 1407 ft | 121 kts | 124° |
| 2026-05-08 04:48 | 21.08040 | -86.94712 | 1249 ft | 120 kts | 124° |
| 2026-05-08 04:48 | 21.07578 | -86.93973 | 1093 ft | 119 kts | 124° |
| 2026-05-08 04:48 | 21.07116 | -86.93234 | 929 ft | 120 kts | 125° |
| 2026-05-08 04:49 | 21.06653 | -86.92493 | 797 ft | 120 kts | 125° |
| 2026-05-08 04:49 | 21.06193 | -86.91758 | 655 ft | 117 kts | 122° |
| 2026-05-08 04:49 | 21.05732 | -86.91021 | 480 ft | 122 kts | 124° |
| 2026-05-08 04:49 | 21.05251 | -86.90251 | 318 ft | 120 kts | 124° |
| 2026-05-08 04:50 | 21.04786 | -86.89507 | 164 ft | 120 kts | 125° |
| 2026-05-08 04:50 | 21.04323 | -86.88768 | 29 ft | 114 kts | 124° |
| 2026-05-08 04:50 | 21.04003 | -86.88253 | 22 ft | 42 kts | 123° |
| 2026-05-08 04:50 | 21.03961 | -86.88185 | 22 ft | 5 kts | 123° |
| 2026-05-08 04:51 | 21.03879 | -86.88029 | 21 ft | 32 kts | 116° |
| 2026-05-08 04:51 | 21.03853 | -86.87795 | 22 ft | 23 kts | 78° |
| 2026-05-08 04:51 | 21.03910 | -86.87702 | 23 ft | 12 kts | 40° |
| 2026-05-08 04:51 | 21.03925 | -86.87687 | 22 ft | 0 kts | 47° |